createdAt,value
2018-08-20T00:08:56.787Z,12.60
2018-08-20T00:09:57.159Z,13.50
2018-08-20T00:10:56.347Z,14.00
2018-08-20T00:11:56.852Z,14.40
2018-08-20T00:12:56.378Z,13.60
2018-08-20T00:13:56.206Z,14.00
2018-08-20T00:14:56.217Z,14.30
2018-08-20T00:15:57.395Z,14.30
2018-08-20T00:16:56.149Z,13.90
2018-08-20T00:17:56.227Z,14.90
2018-08-20T00:18:56.107Z,14.60
2018-08-20T00:19:56.383Z,14.00
2018-08-20T00:20:56.068Z,14.70
2018-08-20T00:27:19.824Z,15.40
2018-08-20T00:28:19.473Z,15.10
2018-08-20T00:29:19.080Z,15.20
2018-08-20T00:30:19.115Z,15.10
2018-08-20T00:31:19.153Z,14.90
2018-08-20T00:32:19.696Z,14.40
2018-08-20T00:33:18.914Z,14.30
2018-08-20T00:34:19.024Z,14.10
2018-08-20T00:35:19.740Z,15.30
2018-08-20T00:36:19.064Z,14.10
2018-08-20T00:37:18.954Z,15.80
2018-08-20T00:38:19.660Z,14.60
2018-08-20T00:39:18.875Z,15.00
2018-08-20T00:40:18.911Z,14.40
2018-08-20T00:41:18.857Z,14.90
2018-08-20T00:42:19.055Z,14.90
2018-08-20T00:43:18.931Z,14.80
2018-08-20T00:44:18.794Z,15.50
2018-08-20T00:45:21.745Z,14.50
2018-08-20T00:46:19.036Z,14.70
2018-08-20T00:47:20.742Z,14.50
2018-08-20T00:48:18.781Z,14.80
2018-08-20T00:49:19.233Z,14.40
2018-08-20T00:50:25.744Z,14.70
2018-08-20T00:51:18.732Z,14.60
2018-08-20T00:52:18.652Z,14.30
2018-08-20T00:53:18.820Z,15.00
2018-08-20T00:54:18.635Z,14.70
2018-08-20T00:55:18.721Z,14.80
2018-08-20T00:56:18.681Z,14.50
2018-08-20T00:57:19.682Z,14.70
2018-08-20T00:58:18.843Z,14.80
2018-08-20T00:59:18.592Z,14.50
2018-08-20T01:00:18.617Z,14.00
2018-08-20T01:01:18.680Z,14.40
2018-08-20T01:02:18.712Z,14.40
2018-08-20T01:03:18.525Z,14.60
2018-08-20T01:04:18.530Z,14.50
2018-08-20T01:05:18.557Z,14.60
2018-08-20T01:06:18.602Z,14.10
2018-08-20T01:07:18.606Z,14.30
2018-08-20T01:08:18.609Z,14.90
2018-08-20T01:09:18.503Z,14.50
2018-08-20T01:10:18.460Z,14.60
2018-08-20T01:11:18.540Z,14.30
2018-08-20T01:12:18.446Z,14.30
2018-08-20T01:13:18.462Z,14.70
2018-08-20T01:14:18.507Z,15.10
2018-08-20T01:15:19.366Z,14.10
2018-08-20T01:16:18.596Z,15.10
2018-08-20T01:17:18.615Z,14.30
2018-08-20T01:21:10.511Z,13.00
2018-08-20T01:22:11.006Z,15.00
2018-08-20T01:26:33.758Z,12.30
2018-08-20T01:27:33.373Z,14.70
2018-08-20T01:28:32.163Z,14.80
2018-08-20T01:29:32.074Z,14.40
2018-08-20T01:30:32.029Z,14.10
2018-08-20T01:31:32.010Z,15.20
2018-08-20T01:32:32.028Z,14.80
2018-08-20T01:33:32.069Z,14.70
2018-08-20T01:34:32.871Z,14.60
2018-08-20T01:35:32.006Z,14.60
2018-08-20T01:36:32.923Z,14.10
2018-08-20T01:37:31.984Z,14.20
2018-08-20T01:38:32.039Z,13.90
2018-08-20T01:42:08.480Z,14.30
2018-08-20T01:43:06.867Z,15.10
2018-08-20T01:44:07.305Z,15.10
2018-08-20T01:45:07.085Z,14.80
2018-08-20T01:50:23.326Z,13.10
2018-08-20T02:03:06.994Z,10.80
2018-08-20T02:04:04.913Z,12.80
2018-08-20T02:12:56.556Z,11.40
2018-08-20T02:13:56.288Z,11.60
2018-08-20T02:14:56.123Z,12.10
2018-08-20T02:15:56.111Z,11.40
2018-08-20T02:16:56.104Z,11.60
2018-08-20T02:17:55.974Z,11.10
2018-08-20T02:18:56.044Z,11.30
2018-08-20T02:19:55.877Z,11.90
2018-08-20T02:20:55.940Z,11.50
2018-08-20T02:21:55.920Z,11.50
2018-08-20T02:22:56.019Z,11.20
2018-08-20T02:23:55.867Z,11.40
2018-08-20T02:24:55.883Z,11.10
2018-08-20T02:25:56.494Z,11.30
2018-08-20T02:26:55.923Z,10.50
2018-08-20T02:27:55.867Z,10.80
2018-08-20T02:28:55.876Z,10.20
2018-08-20T02:29:55.906Z,11.00
2018-08-20T02:44:32.894Z,10.00
2018-08-20T02:45:33.095Z,11.20
2018-08-20T02:46:32.720Z,10.90
2018-08-20T02:47:32.613Z,10.60
2018-08-20T02:48:32.648Z,11.30
2018-08-20T02:49:32.377Z,11.00
2018-08-20T02:50:33.366Z,10.60
2018-08-20T02:51:32.492Z,10.60
2018-08-20T02:52:32.310Z,11.00
2018-08-20T02:53:32.358Z,10.10
2018-08-20T02:54:32.319Z,11.10
2018-08-20T02:55:32.273Z,10.70
2018-08-20T02:56:32.306Z,10.60
2018-08-20T02:57:32.370Z,10.30
2018-08-20T02:58:32.293Z,9.90
2018-08-20T02:59:38.956Z,11.10
2018-08-20T04:03:41.334Z,9.30
2018-08-20T04:04:40.884Z,11.10
2018-08-20T04:58:07.926Z,12.40
2018-08-20T05:07:35.801Z,13.60
2018-08-20T05:08:35.310Z,13.80
2018-08-20T05:09:35.253Z,12.70
2018-08-20T05:10:35.273Z,13.30
2018-08-20T05:11:35.130Z,12.10
2018-08-20T05:12:35.121Z,12.70
2018-08-20T05:13:35.107Z,13.90
2018-08-20T05:14:35.094Z,13.90
2018-08-20T05:15:35.125Z,14.00
2018-08-20T05:16:35.139Z,13.50
2018-08-20T05:17:35.171Z,12.80
2018-08-20T05:18:35.063Z,13.90
2018-08-20T05:19:35.047Z,13.70
2018-08-20T05:20:35.026Z,14.50
2018-08-20T05:21:35.040Z,14.30
2018-08-20T05:22:35.082Z,13.90
2018-08-20T05:23:35.125Z,13.20
2018-08-20T05:24:35.001Z,13.40
2018-08-20T05:25:34.975Z,13.80
2018-08-20T05:26:34.968Z,12.80
2018-08-20T05:27:34.956Z,13.90
2018-08-20T05:28:34.950Z,12.60
2018-08-20T05:29:34.974Z,14.20
2018-08-20T05:30:34.955Z,14.50
2018-08-20T05:31:35.014Z,14.30
2018-08-20T05:32:35.393Z,12.20
2018-08-20T05:33:35.020Z,13.80
2018-08-20T05:34:34.920Z,13.10
2018-08-20T05:35:34.931Z,13.60
2018-08-20T05:36:34.879Z,13.60
2018-08-20T05:37:34.929Z,14.30
2018-08-20T05:38:34.859Z,13.20
2018-08-20T05:39:34.957Z,14.00
2018-08-20T05:40:34.836Z,14.00
2018-08-20T05:41:34.826Z,14.20
2018-08-20T05:42:35.778Z,14.30
2018-08-20T05:43:34.827Z,14.80
2018-08-20T05:44:34.885Z,14.70
2018-08-20T05:45:34.851Z,14.90
2018-08-20T05:46:34.827Z,14.90
2018-08-20T05:47:34.781Z,14.70
2018-08-20T05:48:34.955Z,15.20
2018-08-20T05:49:34.855Z,15.30
2018-08-20T05:50:34.738Z,15.10
2018-08-20T05:51:34.789Z,15.10
2018-08-20T05:52:34.884Z,16.00
2018-08-20T05:53:34.710Z,15.50
2018-08-20T05:54:34.714Z,15.20
2018-08-20T05:55:34.726Z,15.60
2018-08-20T05:56:34.722Z,15.20
2018-08-20T05:57:34.685Z,15.30
2018-08-20T05:58:34.650Z,14.20
2018-08-20T05:59:34.706Z,14.70
2018-08-20T06:00:34.610Z,15.20
2018-08-20T06:01:34.623Z,14.30
2018-08-20T06:02:34.587Z,14.20
2018-08-20T06:03:34.616Z,14.40
2018-08-20T06:04:34.601Z,13.60
2018-08-20T06:05:34.749Z,14.80
2018-08-20T06:06:34.623Z,15.00
2018-08-20T06:07:34.560Z,14.20
2018-08-20T06:08:34.567Z,13.80
2018-08-20T06:09:34.495Z,14.40
2018-08-20T06:10:34.525Z,14.60
2018-08-20T06:11:34.482Z,14.40
2018-08-20T06:12:34.514Z,13.90
2018-08-20T06:13:34.517Z,14.30
2018-08-20T06:14:34.467Z,14.10
2018-08-20T06:15:34.428Z,14.40
2018-08-20T06:16:34.467Z,14.20
2018-08-20T06:17:34.447Z,14.80
2018-08-20T06:18:34.449Z,14.30
2018-08-20T06:19:34.452Z,14.00
2018-08-20T06:20:34.411Z,14.10
2018-08-20T06:21:34.359Z,13.50
2018-08-20T06:22:35.330Z,13.80
2018-08-20T06:23:34.411Z,14.30
2018-08-20T06:24:34.358Z,14.90
2018-08-20T06:25:34.397Z,14.50
2018-08-20T06:26:34.313Z,15.00
2018-08-20T06:27:34.312Z,15.00
2018-08-20T06:28:34.421Z,15.20
2018-08-20T06:29:34.316Z,15.20
2018-08-20T06:30:34.346Z,14.20
2018-08-20T06:31:34.250Z,15.90
2018-08-20T06:32:34.256Z,15.00
2018-08-20T06:33:34.389Z,15.00
2018-08-20T06:34:34.266Z,15.20
2018-08-20T06:35:34.214Z,16.00
2018-08-20T06:36:34.218Z,15.50
2018-08-20T06:37:34.320Z,14.70
2018-08-20T06:38:34.185Z,16.10
2018-08-20T06:39:34.224Z,14.90
2018-08-20T06:40:34.154Z,16.60
2018-08-20T06:41:34.184Z,15.70
2018-08-20T06:42:34.163Z,16.10
2018-08-20T06:43:34.137Z,16.60
2018-08-20T06:44:34.123Z,15.80
2018-08-20T06:45:34.166Z,17.20
2018-08-20T06:46:34.110Z,16.80
2018-08-20T06:47:34.116Z,15.70
2018-08-20T06:48:34.068Z,17.10
2018-08-20T06:49:34.070Z,17.70
2018-08-20T06:50:34.073Z,17.30
2018-08-20T06:51:34.095Z,16.90
2018-08-20T06:52:34.335Z,17.10
2018-08-20T06:53:34.863Z,17.10
2018-08-20T06:54:34.071Z,18.40
2018-08-20T06:55:34.092Z,19.00
2018-08-20T06:56:34.003Z,18.70
2018-08-20T06:57:34.030Z,17.70
2018-08-20T06:58:33.944Z,19.00
2018-08-20T06:59:33.943Z,18.40
2018-08-20T07:00:34.121Z,18.70
2018-08-20T07:01:33.981Z,19.90
2018-08-20T07:02:35.913Z,19.30
2018-08-20T07:03:33.958Z,19.70
2018-08-20T07:04:33.996Z,20.70
2018-08-20T07:05:33.976Z,19.80
2018-08-20T07:06:34.059Z,20.90
2018-08-20T07:07:33.850Z,20.30
2018-08-20T07:08:33.855Z,21.90
2018-08-20T07:09:33.816Z,20.40
2018-08-20T07:10:33.804Z,20.50
2018-08-20T07:11:33.813Z,21.60
2018-08-20T07:12:33.886Z,21.50
2018-08-20T07:13:33.795Z,21.80
2018-08-20T07:14:33.766Z,21.60
2018-08-20T07:15:33.775Z,22.50
2018-08-20T07:16:33.736Z,22.70
2018-08-20T07:17:33.757Z,23.40
2018-08-20T07:18:33.742Z,23.20
2018-08-20T07:19:33.835Z,24.10
2018-08-20T07:20:33.769Z,25.90
2018-08-20T07:21:36.240Z,24.00
2018-08-20T07:22:35.494Z,26.00
2018-08-20T07:23:35.393Z,26.20
2018-08-20T07:24:33.729Z,24.00
2018-08-20T07:27:15.427Z,23.90
2018-08-20T07:28:15.394Z,29.00
2018-08-20T07:29:15.271Z,27.30
2018-08-20T07:31:46.879Z,26.10
2018-08-20T07:32:47.260Z,29.00
2018-08-20T07:33:51.877Z,28.50
2018-08-20T07:37:02.436Z,30.20
2018-08-20T07:38:02.439Z,33.70
2018-08-20T07:39:02.202Z,34.50
2018-08-20T07:40:02.169Z,34.60
2018-08-20T07:41:02.116Z,34.50
2018-08-20T07:42:03.618Z,34.90
2018-08-20T07:43:02.120Z,34.40
2018-08-20T07:44:02.618Z,35.10
2018-08-20T07:45:02.065Z,35.00
2018-08-20T07:46:02.080Z,35.60
2018-08-20T07:47:02.047Z,35.10
2018-08-20T07:59:27.771Z,33.90
2018-08-20T08:00:27.645Z,36.20
2018-08-20T08:01:27.680Z,34.80
2018-08-20T08:02:27.638Z,36.20
2018-08-20T08:03:27.641Z,35.60
2018-08-20T08:04:27.648Z,35.30
2018-08-20T08:05:27.655Z,33.50
2018-08-20T08:06:27.588Z,34.10
2018-08-20T08:07:27.569Z,32.70
2018-08-20T08:09:45.593Z,30.40
2018-08-20T08:10:45.480Z,31.70
2018-08-20T08:11:45.427Z,34.50
2018-08-20T08:12:45.480Z,35.20
2018-08-20T08:13:45.561Z,31.80
2018-08-20T08:14:45.421Z,34.10
2018-08-20T08:15:45.938Z,35.10
2018-08-20T08:16:45.398Z,33.90
2018-08-20T08:17:45.895Z,33.90
2018-08-20T08:18:45.339Z,32.70
2018-08-20T08:19:45.385Z,35.10
2018-08-20T08:20:45.347Z,32.40
2018-08-20T08:21:45.299Z,33.50
2018-08-20T08:22:45.291Z,33.20
2018-08-20T08:23:45.313Z,31.20
2018-08-20T08:24:45.269Z,33.40
2018-08-20T08:25:45.287Z,32.70
2018-08-20T08:26:45.261Z,32.60
2018-08-20T08:27:45.235Z,32.20
2018-08-20T08:28:45.252Z,33.60
2018-08-20T08:29:45.221Z,33.60
2018-08-20T08:30:45.280Z,33.20
2018-08-20T08:31:45.228Z,34.90
2018-08-20T08:32:45.220Z,33.80
2018-08-20T08:33:45.227Z,33.60
2018-08-20T08:34:45.204Z,32.40
2018-08-20T08:35:45.175Z,33.80
2018-08-20T08:36:45.151Z,33.70
2018-08-20T08:37:45.156Z,33.00
2018-08-20T08:38:45.130Z,33.80
2018-08-20T08:39:45.116Z,35.90
2018-08-20T08:40:45.140Z,35.00
2018-08-20T08:41:45.169Z,35.00
2018-08-20T08:42:45.084Z,34.00
2018-08-20T08:43:45.077Z,34.70
2018-08-20T08:44:45.048Z,35.20
2018-08-20T08:45:45.038Z,34.50
2018-08-20T08:46:45.116Z,35.50
2018-08-20T08:47:45.113Z,36.40
2018-08-20T08:48:45.008Z,35.40
2018-08-20T08:49:45.053Z,36.80
2018-08-20T08:50:45.026Z,36.90
2018-08-20T08:51:45.090Z,37.20
2018-08-20T08:52:46.164Z,36.80
2018-08-20T08:53:44.964Z,37.40
2018-08-20T08:54:44.955Z,37.20
2018-08-20T08:55:44.973Z,38.70
2018-08-20T08:56:44.949Z,36.60
2018-08-20T08:57:44.912Z,36.50
2018-08-20T08:58:45.050Z,37.70
2018-08-20T08:59:44.905Z,37.60
2018-08-20T09:00:44.939Z,38.40
2018-08-20T09:01:44.876Z,37.00
2018-08-20T09:02:44.875Z,38.70
2018-08-20T09:03:45.140Z,36.80
2018-08-20T09:04:44.880Z,37.80
2018-08-20T09:05:44.828Z,37.70
2018-08-20T09:06:44.863Z,37.80
2018-08-20T09:07:44.816Z,37.70
2018-08-20T09:08:44.782Z,37.00
2018-08-20T09:09:44.778Z,37.00
2018-08-20T09:10:44.766Z,36.60
2018-08-20T09:11:44.745Z,36.80
2018-08-20T09:12:44.857Z,35.80
2018-08-20T09:13:44.846Z,36.20
2018-08-20T09:14:44.861Z,35.70
2018-08-20T09:15:44.708Z,36.10
2018-08-20T09:16:44.703Z,36.60
2018-08-20T09:17:44.726Z,38.60
2018-08-20T09:18:44.691Z,39.60
2018-08-20T09:19:44.673Z,39.60
2018-08-20T09:20:44.752Z,40.20
2018-08-20T09:21:44.643Z,40.70
2018-08-20T09:22:44.641Z,40.20
2018-08-20T09:23:44.630Z,40.80
2018-08-20T09:24:44.642Z,39.80
2018-08-20T09:25:44.590Z,39.70
2018-08-20T09:26:44.612Z,41.10
2018-08-20T09:27:44.578Z,41.10
2018-08-20T09:28:44.587Z,41.40
2018-08-20T09:29:44.596Z,41.10
2018-08-20T09:30:44.565Z,42.20
2018-08-20T09:31:44.527Z,42.80
2018-08-20T09:32:44.638Z,43.80
2018-08-20T09:33:44.610Z,43.50
2018-08-20T09:34:46.636Z,44.00
2018-08-20T09:35:44.761Z,43.80
2018-08-20T09:36:44.538Z,44.70
2018-08-20T09:37:44.475Z,43.40
2018-08-20T09:38:44.452Z,41.80
2018-08-20T09:39:44.460Z,43.30
2018-08-20T09:40:44.428Z,42.20
2018-08-20T09:43:29.267Z,40.20
2018-08-20T09:46:13.853Z,41.40
2018-08-20T09:47:14.016Z,44.60
2018-08-20T09:52:27.323Z,45.00
2018-08-20T09:54:59.414Z,38.90
2018-08-20T10:15:44.597Z,41.10
2018-08-20T10:16:46.405Z,45.20
2018-08-20T10:19:09.980Z,42.60
2018-08-20T10:22:08.684Z,38.30
2018-08-20T10:23:03.566Z,43.70
2018-08-20T10:38:51.641Z,36.50
2018-08-20T10:39:51.728Z,39.70
2018-08-20T10:40:51.576Z,39.90
2018-08-20T10:44:58.153Z,32.90
2018-08-20T10:57:53.671Z,31.80
2018-08-20T10:58:53.723Z,36.50
2018-08-20T11:09:18.198Z,34.20
2018-08-20T11:13:54.356Z,31.00
2018-08-20T11:17:29.500Z,29.70
2018-08-20T11:18:34.044Z,30.20
2018-08-20T11:19:34.602Z,29.30
2018-08-20T11:25:36.179Z,28.50
2018-08-20T11:26:36.164Z,32.00
2018-08-20T11:27:36.103Z,29.80
2018-08-20T11:28:36.090Z,31.80
2018-08-20T11:29:36.059Z,31.50
2018-08-20T11:30:36.102Z,33.10
2018-08-20T11:31:35.970Z,32.70
2018-08-20T11:34:08.904Z,29.10
2018-08-20T11:35:09.488Z,32.20
2018-08-20T11:36:08.805Z,31.60
2018-08-20T11:37:08.486Z,31.40
2018-08-20T11:40:21.575Z,26.50
2018-08-20T11:41:21.588Z,30.20
2018-08-20T11:43:47.240Z,29.30
2018-08-20T11:44:47.242Z,30.60
2018-08-20T11:45:56.534Z,31.60
2018-08-20T11:46:47.257Z,31.10
2018-08-20T11:47:47.281Z,32.30
2018-08-20T11:48:47.325Z,32.10
2018-08-20T11:49:47.792Z,32.00
2018-08-20T11:50:47.134Z,32.70
2018-08-20T11:52:59.393Z,31.90
2018-08-20T11:53:59.038Z,30.50
2018-08-20T11:54:59.519Z,31.70
2018-08-20T11:55:58.916Z,31.10
2018-08-20T11:56:58.804Z,31.10
2018-08-20T11:57:58.851Z,31.20
2018-08-20T11:58:58.819Z,30.80
2018-08-20T11:59:58.782Z,30.70
2018-08-20T12:00:58.806Z,30.80
2018-08-20T12:01:58.834Z,29.50
2018-08-20T12:02:58.801Z,28.70
2018-08-20T12:03:58.743Z,28.20
2018-08-20T12:04:58.735Z,27.90
2018-08-20T12:05:58.723Z,27.60
2018-08-20T12:06:58.755Z,26.80
2018-08-20T12:07:58.690Z,26.70
2018-08-20T12:08:58.807Z,27.40
2018-08-20T12:09:58.858Z,26.90
2018-08-20T12:10:58.665Z,27.70
2018-08-20T12:11:58.655Z,26.50
2018-08-20T12:12:58.642Z,25.80
2018-08-20T12:13:58.635Z,26.30
2018-08-20T12:14:58.823Z,26.50
2018-08-20T12:15:58.608Z,26.40
2018-08-20T12:16:58.594Z,27.20
2018-08-20T12:17:58.629Z,27.40
2018-08-20T12:18:58.705Z,26.50
2018-08-20T12:19:58.652Z,25.60
2018-08-20T12:20:58.552Z,26.60
2018-08-20T12:21:58.548Z,26.50
2018-08-20T12:22:58.532Z,26.80
2018-08-20T12:23:58.577Z,25.90
2018-08-20T12:24:59.295Z,26.80
2018-08-20T12:27:28.685Z,25.30
2018-08-20T12:28:28.282Z,28.70
2018-08-20T12:29:29.981Z,29.10
2018-08-20T12:39:03.377Z,26.80
2018-08-20T12:43:55.042Z,26.10
2018-08-20T12:44:54.841Z,28.00
2018-08-20T12:45:53.979Z,27.30
2018-08-20T12:46:53.897Z,28.70
2018-08-20T12:47:53.989Z,28.50
2018-08-20T12:48:53.993Z,29.30
2018-08-20T12:49:53.901Z,29.00
2018-08-20T12:50:54.015Z,29.30
2018-08-20T12:51:55.825Z,28.00
2018-08-20T12:52:54.078Z,29.20
2018-08-20T12:53:58.710Z,29.10
2018-08-20T12:54:53.799Z,29.00
2018-08-20T12:55:53.810Z,29.00
2018-08-20T12:56:53.775Z,29.00
2018-08-20T12:57:53.761Z,23.20
2018-08-20T12:58:53.747Z,20.10
2018-08-20T12:59:53.974Z,19.20
2018-08-20T13:05:10.702Z,15.40
2018-08-20T13:06:10.343Z,17.80
2018-08-20T13:07:10.367Z,17.80
2018-08-20T13:08:11.066Z,17.70
2018-08-20T13:09:10.253Z,18.50
2018-08-20T13:10:10.151Z,18.60
2018-08-20T13:11:10.160Z,19.00
2018-08-20T13:12:10.188Z,18.90
2018-08-20T13:13:10.143Z,18.10
2018-08-20T13:14:10.134Z,19.60
2018-08-20T13:15:10.147Z,19.80
2018-08-20T13:16:10.184Z,20.30
2018-08-20T13:17:10.099Z,19.80
2018-08-20T13:18:10.059Z,20.30
2018-08-20T13:19:10.106Z,20.60
2018-08-20T13:20:10.032Z,21.10
2018-08-20T13:22:21.352Z,15.10
2018-08-20T13:23:20.925Z,16.80
2018-08-20T13:24:20.910Z,18.50
2018-08-20T13:25:20.900Z,18.10
2018-08-20T13:26:20.881Z,24.10
2018-08-20T13:27:20.869Z,22.70
2018-08-20T13:28:20.913Z,19.30
2018-08-20T13:29:20.933Z,20.70
2018-08-20T13:30:20.834Z,25.40
2018-08-20T13:31:20.828Z,25.30
2018-08-20T13:46:29.611Z,24.30
2018-08-20T13:47:29.220Z,31.00
2018-08-20T13:48:29.181Z,28.00
2018-08-20T13:49:29.216Z,21.70
2018-08-20T13:50:29.236Z,24.80
2018-08-20T13:51:29.212Z,28.50
2018-08-20T13:52:29.239Z,29.80
2018-08-20T13:53:29.215Z,30.30
2018-08-20T13:54:29.141Z,29.70
2018-08-20T13:55:29.326Z,30.50
2018-08-20T13:56:29.108Z,30.50
2018-08-20T13:57:29.093Z,30.50
2018-08-20T13:58:29.198Z,30.80
2018-08-20T13:59:29.823Z,30.50
2018-08-20T14:01:47.809Z,31.20
2018-08-20T14:02:47.424Z,31.20
2018-08-20T14:03:47.993Z,32.00
2018-08-20T14:04:48.014Z,32.00
2018-08-20T14:05:47.360Z,31.30
2018-08-20T14:06:48.927Z,32.70
2018-08-20T14:08:07.125Z,33.30
2018-08-20T14:08:47.376Z,32.40
2018-08-20T14:09:47.414Z,32.40
2018-08-20T14:10:47.337Z,33.10
2018-08-20T14:11:47.354Z,32.00
2018-08-20T14:12:47.388Z,32.80
2018-08-20T14:13:48.170Z,32.80
2018-08-20T14:14:48.289Z,31.40
2018-08-20T14:15:47.499Z,33.10
2018-08-20T14:16:49.285Z,32.00
2018-08-20T14:17:48.250Z,31.20
2018-08-20T14:18:47.322Z,30.70
2018-08-20T14:20:56.901Z,29.00
2018-08-20T14:22:07.672Z,31.30
2018-08-20T14:22:56.905Z,31.00
2018-08-20T14:23:56.883Z,30.30
2018-08-20T14:24:56.918Z,30.90
2018-08-20T14:25:56.905Z,27.70
2018-08-20T14:26:56.853Z,26.30
2018-08-20T14:27:56.866Z,27.40
2018-08-20T14:28:56.885Z,27.90
2018-08-20T14:29:56.806Z,27.00
2018-08-20T14:30:56.813Z,28.50
2018-08-20T14:31:56.824Z,27.60
2018-08-20T14:32:56.772Z,27.80
2018-08-20T14:33:56.775Z,28.30
2018-08-20T14:34:56.754Z,28.70
2018-08-20T14:35:56.784Z,27.90
2018-08-20T14:36:56.800Z,28.20
2018-08-20T14:37:56.722Z,26.70
2018-08-20T14:38:56.708Z,28.00
2018-08-20T14:39:56.764Z,26.80
2018-08-20T14:40:56.716Z,25.10
2018-08-20T14:41:56.779Z,24.80
2018-08-20T14:42:56.728Z,22.90
2018-08-20T14:43:58.858Z,22.10
2018-08-20T14:44:56.963Z,20.20
2018-08-20T14:45:56.703Z,18.40
2018-08-20T14:46:57.369Z,18.10
2018-08-20T14:47:56.843Z,18.20
2018-08-20T14:48:57.399Z,17.10
2018-08-20T14:49:56.656Z,17.80
2018-08-20T14:50:59.187Z,16.50
2018-08-20T14:51:58.362Z,16.40
2018-08-20T15:53:02.670Z,13.70
2018-08-20T15:54:02.023Z,9.10
2018-08-20T15:55:02.020Z,9.00
2018-08-20T15:56:02.039Z,8.40
2018-08-20T15:57:02.605Z,8.60
2018-08-20T15:58:02.166Z,8.30
2018-08-20T16:13:16.010Z,7.90
2018-08-20T16:14:15.505Z,7.90
2018-08-20T16:15:15.397Z,7.00
2018-08-20T16:16:15.389Z,6.30
2018-08-20T16:17:15.377Z,5.80
2018-08-20T16:18:15.362Z,6.30
2018-08-20T16:19:15.379Z,6.10
2018-08-20T16:20:15.345Z,5.70
2018-08-20T16:21:15.513Z,5.40
2018-08-20T16:22:15.320Z,5.40
2018-08-20T16:23:15.316Z,5.40
2018-08-20T16:24:16.087Z,5.30
2018-08-20T16:48:10.054Z,4.80
2018-08-20T16:49:09.847Z,4.40
2018-08-20T17:10:27.846Z,4.00
2018-08-20T17:11:27.496Z,3.30
2018-08-20T17:12:27.429Z,3.40
2018-08-20T17:13:37.102Z,3.30
2018-08-20T17:15:49.608Z,3.30
2018-08-20T17:25:27.748Z,2.90
2018-08-20T17:29:46.513Z,2.50
2018-08-20T17:40:28.498Z,2.60
2018-08-20T17:44:01.669Z,1.20
2018-08-20T17:50:36.574Z,1.20
2018-08-20T17:51:36.596Z,1.00
2018-08-20T17:52:36.685Z,1.10
2018-08-20T17:53:36.668Z,1.00
2018-08-20T18:02:15.977Z,2.40
2018-08-20T18:06:22.037Z,2.30
2018-08-20T18:13:16.963Z,2.10
2018-08-20T18:14:21.626Z,1.20
2018-08-20T18:31:13.956Z,2.00
2018-08-20T18:35:30.459Z,0.90
2018-08-20T18:41:01.677Z,1.20
2018-08-20T18:49:42.187Z,0.70
2018-08-20T18:50:40.948Z,1.00
2018-08-20T18:51:40.660Z,1.20
2018-08-20T18:52:42.211Z,1.10
2018-08-20T18:53:40.537Z,1.20
2018-08-20T18:54:40.736Z,1.10
2018-08-20T18:55:40.406Z,1.20
2018-08-20T18:56:40.393Z,1.10
2018-08-20T18:57:40.425Z,1.10
2018-08-20T19:01:05.402Z,1.20
2018-08-20T19:03:55.885Z,0.90
2018-08-20T19:04:55.146Z,1.00
2018-08-20T19:05:55.108Z,1.00
2018-08-20T19:06:55.004Z,0.80
2018-08-20T19:07:54.967Z,0.80
2018-08-20T19:08:54.931Z,0.70
2018-08-20T19:12:37.822Z,0.60
2018-08-20T19:13:37.608Z,0.90
2018-08-20T19:14:37.414Z,0.80
2018-08-20T19:15:39.166Z,0.90
2018-08-20T19:21:25.104Z,0.90
2018-08-20T19:23:36.500Z,0.70
2018-08-20T19:24:36.765Z,0.90
2018-08-20T19:25:47.255Z,0.60
2018-08-20T19:26:36.442Z,1.00
2018-08-20T19:27:36.500Z,1.00
2018-08-20T19:28:41.831Z,0.80
2018-08-20T19:29:36.866Z,1.00
2018-08-20T19:30:48.084Z,0.80
2018-08-20T19:31:36.541Z,0.90
2018-08-20T19:32:37.143Z,1.00
2018-08-20T19:33:43.331Z,0.90
2018-08-20T19:34:36.258Z,1.00
2018-08-20T19:35:36.264Z,0.90
2018-08-20T19:36:36.314Z,0.80
2018-08-20T19:39:43.567Z,0.90
2018-08-20T19:40:43.629Z,0.80
2018-08-20T19:41:43.530Z,0.80
2018-08-20T19:47:57.212Z,0.80
2018-08-20T19:48:58.603Z,0.90
2018-08-20T19:49:57.060Z,0.80
2018-08-20T19:50:56.470Z,0.90
2018-08-20T19:53:26.305Z,1.20
2018-08-20T19:54:26.382Z,0.90
2018-08-20T19:55:26.129Z,1.00
2018-08-20T19:56:26.030Z,1.10
2018-08-20T19:57:25.988Z,1.00
2018-08-20T19:58:26.018Z,0.80
2018-08-20T19:59:25.955Z,1.10
2018-08-20T20:00:25.828Z,0.90
2018-08-20T20:04:35.886Z,1.00
2018-08-20T20:05:35.383Z,0.90
2018-08-20T20:06:35.426Z,0.90
2018-08-20T20:07:35.385Z,0.80
2018-08-20T20:08:35.295Z,0.90
2018-08-20T20:09:35.184Z,0.90
2018-08-20T20:10:35.419Z,1.00
2018-08-20T20:11:35.179Z,0.90
2018-08-20T20:12:35.929Z,0.70
2018-08-20T20:13:35.161Z,1.00
2018-08-20T20:14:35.126Z,1.00
2018-08-20T20:15:35.128Z,0.80
2018-08-20T20:16:35.113Z,1.10
2018-08-20T20:17:35.157Z,1.00
2018-08-20T20:18:35.112Z,1.00
2018-08-20T20:19:35.073Z,1.10
2018-08-20T20:20:35.092Z,0.90
2018-08-20T20:21:35.098Z,1.00
2018-08-20T20:22:35.046Z,1.00
2018-08-20T20:23:35.062Z,1.00
2018-08-20T20:24:35.020Z,1.00
2018-08-20T20:25:35.009Z,1.20
2018-08-20T20:26:35.011Z,1.00
2018-08-20T20:27:35.065Z,1.00
2018-08-20T20:28:34.999Z,1.00
2018-08-20T20:29:35.020Z,1.00
2018-08-20T20:30:34.976Z,1.30
2018-08-20T20:31:34.957Z,1.10
2018-08-20T20:36:24.928Z,1.00
2018-08-20T20:37:24.222Z,1.00
2018-08-20T20:38:24.381Z,1.10
2018-08-20T20:39:24.117Z,1.00
2018-08-20T20:40:24.172Z,1.10
2018-08-20T20:41:24.051Z,1.00
2018-08-20T20:42:24.067Z,1.10
2018-08-20T20:43:24.051Z,1.30
2018-08-20T20:44:24.052Z,1.60
2018-08-20T20:45:24.005Z,1.10
2018-08-20T20:46:24.007Z,1.30
2018-08-20T20:47:24.035Z,1.10
2018-08-20T20:48:23.981Z,1.10
2018-08-20T20:49:24.005Z,1.30
2018-08-20T20:50:23.967Z,1.30
2018-08-20T20:51:23.939Z,1.30
2018-08-20T20:52:24.016Z,1.30
2018-08-20T20:53:23.951Z,1.30
2018-08-20T20:54:23.918Z,1.40
2018-08-20T20:55:23.908Z,1.40
2018-08-20T20:56:23.896Z,1.50
2018-08-20T20:57:23.875Z,1.30
2018-08-20T20:58:23.887Z,1.40
2018-08-20T20:59:23.855Z,1.60
2018-08-20T21:00:23.848Z,1.40
2018-08-20T21:01:23.852Z,1.60
2018-08-20T21:02:23.849Z,1.60
2018-08-20T21:03:23.813Z,1.50
2018-08-20T21:04:23.814Z,1.70
2018-08-20T21:05:23.823Z,1.50
2018-08-20T21:06:23.789Z,1.50
2018-08-20T21:07:23.841Z,1.60
2018-08-20T21:08:23.757Z,1.60
2018-08-20T21:09:23.753Z,1.70
2018-08-20T21:10:23.795Z,1.50
2018-08-20T21:11:23.754Z,1.50
2018-08-20T21:12:23.754Z,1.30
2018-08-20T21:13:23.748Z,1.40
2018-08-20T21:14:23.695Z,1.30
2018-08-20T21:15:23.731Z,1.40
2018-08-20T21:16:23.667Z,1.50
2018-08-20T21:17:23.676Z,1.30
2018-08-20T21:18:23.673Z,1.30
2018-08-20T21:19:23.684Z,1.40
2018-08-20T21:20:23.626Z,1.30
2018-08-20T21:21:23.626Z,1.60
2018-08-20T21:22:23.630Z,1.50
2018-08-20T21:23:23.593Z,1.60
2018-08-20T21:24:23.612Z,1.60
2018-08-20T21:25:23.654Z,1.60
2018-08-20T21:26:23.582Z,1.60
2018-08-20T21:27:23.562Z,1.40
2018-08-20T21:28:23.543Z,1.30
2018-08-20T21:29:23.533Z,1.30
2018-08-20T21:30:23.556Z,1.30
2018-08-20T21:31:23.532Z,1.60
2018-08-20T21:32:23.510Z,1.40
2018-08-20T21:33:23.489Z,1.50
2018-08-20T21:34:23.540Z,1.50
2018-08-20T21:35:23.487Z,1.30
2018-08-20T21:36:23.461Z,1.40
2018-08-20T21:37:23.438Z,1.30
2018-08-20T21:38:23.472Z,1.20
2018-08-20T21:39:23.441Z,1.30
2018-08-20T21:40:23.442Z,1.30
2018-08-20T21:41:23.425Z,1.20
2018-08-20T21:42:23.387Z,1.30
2018-08-20T21:43:23.435Z,1.20
2018-08-20T21:44:23.402Z,0.90
2018-08-20T21:45:23.360Z,1.40
2018-08-20T21:46:23.366Z,1.20
2018-08-20T21:47:23.398Z,1.20
2018-08-20T21:48:23.330Z,1.30
2018-08-20T21:49:23.333Z,1.40
2018-08-20T21:50:23.313Z,1.20
2018-08-20T21:51:23.286Z,1.50
2018-08-20T21:52:23.361Z,1.30
2018-08-20T21:53:23.339Z,1.30
2018-08-20T21:54:23.305Z,1.40
2018-08-20T21:55:23.243Z,1.40
2018-08-20T21:56:23.272Z,1.20
2018-08-20T21:57:23.243Z,1.40
2018-08-20T21:58:23.257Z,1.30
2018-08-20T21:59:23.262Z,1.20
2018-08-20T22:00:23.222Z,1.20
2018-08-20T22:01:23.304Z,1.30
2018-08-20T22:02:23.223Z,1.40
2018-08-20T22:03:23.181Z,1.40
2018-08-20T22:04:23.176Z,1.40
2018-08-20T22:05:23.148Z,1.20
2018-08-20T22:06:23.125Z,1.30
2018-08-20T22:07:23.160Z,1.30
2018-08-20T22:08:23.132Z,1.40
2018-08-20T22:09:23.135Z,1.10
2018-08-20T22:10:23.111Z,1.50
2018-08-20T22:11:23.083Z,1.50
2018-08-20T22:12:23.065Z,1.50